createdAt,value
2023-04-30T00:01:03.698Z,83.96
2023-04-30T00:02:07.962Z,83.97
2023-04-30T00:03:12.262Z,83.92
2023-04-30T00:04:16.423Z,83.83
2023-04-30T00:05:20.678Z,83.75
2023-04-30T00:06:28.092Z,83.81
2023-04-30T00:07:29.187Z,83.72
2023-04-30T00:08:33.399Z,83.71
2023-04-30T00:09:37.644Z,83.71
2023-04-30T00:10:41.894Z,83.81
2023-04-30T00:11:46.192Z,83.78
2023-04-30T00:12:50.392Z,83.90
2023-04-30T00:13:54.608Z,84.00
2023-04-30T00:14:58.818Z,84.06
2023-04-30T00:16:03.078Z,84.09
2023-04-30T00:17:07.326Z,84.10
2023-04-30T00:18:11.595Z,84.20
2023-04-30T00:19:15.753Z,84.24
2023-04-30T00:20:20.060Z,84.33
2023-04-30T00:21:24.269Z,84.41
2023-04-30T00:22:28.583Z,84.40
2023-04-30T00:23:32.787Z,84.44
2023-04-30T00:24:37.065Z,84.49
2023-04-30T00:25:41.328Z,84.47
2023-04-30T00:26:45.545Z,84.51
2023-04-30T00:27:49.832Z,84.39
2023-04-30T00:28:54.058Z,84.36
2023-04-30T00:29:58.316Z,84.34
2023-04-30T00:31:02.479Z,84.37
2023-04-30T00:32:06.859Z,84.39
2023-04-30T00:33:11.003Z,84.46
2023-04-30T00:34:15.239Z,84.57
2023-04-30T00:35:19.414Z,84.64
2023-04-30T00:36:23.871Z,84.63
2023-04-30T00:37:28.290Z,84.63
2023-04-30T00:38:32.472Z,84.67
2023-04-30T00:39:36.772Z,84.63
2023-04-30T00:40:54.960Z,84.66
2023-04-30T00:41:58.027Z,84.67
2023-04-30T00:43:02.247Z,84.66
2023-04-30T00:44:06.427Z,84.64
2023-04-30T00:45:10.520Z,84.68
2023-04-30T00:46:14.865Z,84.75
2023-04-30T00:47:19.105Z,84.85
2023-04-30T00:48:23.324Z,84.91
2023-04-30T00:49:27.577Z,84.89
2023-04-30T00:50:31.844Z,84.94
2023-04-30T00:51:36.051Z,84.96
2023-04-30T00:52:40.337Z,84.96
2023-04-30T00:53:44.639Z,84.97
2023-04-30T00:54:49.013Z,85.05
2023-04-30T00:55:53.058Z,85.05
2023-04-30T00:56:57.264Z,85.09
2023-04-30T00:58:01.607Z,85.03
2023-04-30T00:59:05.745Z,84.97
2023-04-30T01:00:16.018Z,84.88
2023-04-30T01:01:19.003Z,84.97
2023-04-30T01:02:23.161Z,85.02
2023-04-30T01:03:27.420Z,85.05
2023-04-30T01:04:31.590Z,85.04
2023-04-30T01:05:35.740Z,85.07
2023-04-30T01:06:40.141Z,85.11
2023-04-30T01:07:44.236Z,85.18
2023-04-30T01:08:48.540Z,85.19
2023-04-30T01:09:53.040Z,85.18
2023-04-30T01:10:57.047Z,85.30
2023-04-30T01:12:01.215Z,85.31
2023-04-30T01:13:05.483Z,85.31
2023-04-30T01:14:09.678Z,85.37
2023-04-30T01:15:13.992Z,85.39
2023-04-30T01:16:18.242Z,85.41
2023-04-30T01:17:22.411Z,85.45
2023-04-30T01:18:26.718Z,85.44
2023-04-30T01:19:30.846Z,85.51
2023-04-30T01:20:35.165Z,85.52
2023-04-30T01:21:39.462Z,85.54
2023-04-30T01:22:43.730Z,85.51
2023-04-30T01:23:47.895Z,85.49
2023-04-30T01:24:52.121Z,85.47
2023-04-30T01:25:56.432Z,85.40
2023-04-30T01:27:00.616Z,85.33
2023-04-30T01:28:04.836Z,85.25
2023-04-30T01:29:09.085Z,85.16
2023-04-30T01:30:13.298Z,85.14
2023-04-30T01:31:17.617Z,85.05
2023-04-30T01:32:21.758Z,84.97
2023-04-30T01:33:26.083Z,84.88
2023-04-30T01:34:30.447Z,84.85
2023-04-30T01:35:34.668Z,84.77
2023-04-30T01:36:38.982Z,84.69
2023-04-30T01:37:43.148Z,84.60
2023-04-30T01:38:47.449Z,84.50
2023-04-30T01:39:55.097Z,84.41
2023-04-30T01:40:57.975Z,84.29
2023-04-30T01:42:02.403Z,84.18
2023-04-30T01:43:06.564Z,84.06
2023-04-30T01:44:10.830Z,83.97
2023-04-30T01:45:14.999Z,83.85
2023-04-30T01:46:19.333Z,83.85
2023-04-30T01:47:23.568Z,83.79
2023-04-30T01:48:27.912Z,83.75
2023-04-30T01:49:32.132Z,83.76
2023-04-30T01:50:36.462Z,83.65
2023-04-30T01:51:54.689Z,83.63
2023-04-30T01:52:57.865Z,83.50
2023-04-30T01:54:02.012Z,83.41
2023-04-30T01:55:06.227Z,83.36
2023-04-30T01:56:10.472Z,83.31
2023-04-30T01:57:14.757Z,83.25
2023-04-30T01:58:18.827Z,83.20
2023-04-30T01:59:23.100Z,83.11
2023-04-30T02:00:27.296Z,83.04
2023-04-30T02:01:31.648Z,82.97
2023-04-30T02:02:35.799Z,82.93
2023-04-30T02:03:40.027Z,82.88
2023-04-30T02:04:44.130Z,82.85
2023-04-30T02:05:48.416Z,82.80
2023-04-30T02:06:52.640Z,82.71
2023-04-30T02:07:56.864Z,82.63
2023-04-30T02:09:01.038Z,82.50
2023-04-30T02:10:05.325Z,82.45
2023-04-30T02:11:09.592Z,82.45
2023-04-30T02:12:13.765Z,82.42
2023-04-30T02:13:18.059Z,82.52
2023-04-30T02:14:22.226Z,82.60
2023-04-30T02:15:26.468Z,82.68
2023-04-30T02:16:30.746Z,82.72
2023-04-30T02:17:34.936Z,82.75
2023-04-30T02:18:39.212Z,82.78
2023-04-30T02:19:43.400Z,82.81
2023-04-30T02:20:47.682Z,82.82
2023-04-30T02:21:51.841Z,82.81
2023-04-30T02:22:56.006Z,82.78
2023-04-30T02:24:00.366Z,82.74
2023-04-30T02:25:04.775Z,82.73
2023-04-30T02:26:08.906Z,82.70
2023-04-30T02:27:13.006Z,82.68
2023-04-30T02:28:17.283Z,82.66
2023-04-30T02:29:21.616Z,82.63
2023-04-30T02:30:25.752Z,82.60
2023-04-30T02:31:29.873Z,82.59
2023-04-30T02:32:34.207Z,82.56
2023-04-30T02:33:38.418Z,82.52
2023-04-30T02:34:42.742Z,82.50
2023-04-30T02:35:46.971Z,82.47
2023-04-30T02:36:51.061Z,82.49
2023-04-30T02:37:55.315Z,82.48
2023-04-30T02:38:59.564Z,82.46
2023-04-30T02:40:03.868Z,82.44
2023-04-30T02:41:08.114Z,82.41
2023-04-30T02:42:12.347Z,82.37
2023-04-30T02:43:16.556Z,82.36
2023-04-30T02:44:20.828Z,82.31
2023-04-30T02:45:25.141Z,82.28
2023-04-30T02:46:29.287Z,82.27
2023-04-30T02:47:33.607Z,82.17
2023-04-30T02:48:37.835Z,82.11
2023-04-30T02:49:42.036Z,82.07
2023-04-30T02:50:46.280Z,82.07
2023-04-30T02:51:50.687Z,82.05
2023-04-30T02:52:54.830Z,82.03
2023-04-30T02:53:59.104Z,82.01
2023-04-30T02:55:03.383Z,81.97
2023-04-30T02:56:07.590Z,81.95
2023-04-30T02:57:11.872Z,81.92
2023-04-30T02:58:16.141Z,81.89
2023-04-30T02:59:20.316Z,81.86
2023-04-30T03:00:24.620Z,81.83
2023-04-30T03:01:28.944Z,81.78
2023-04-30T03:02:33.338Z,81.76
2023-04-30T03:03:37.375Z,81.73
2023-04-30T03:04:41.596Z,81.76
2023-04-30T03:05:48.800Z,81.68
2023-04-30T03:06:52.094Z,81.66
2023-04-30T03:07:56.314Z,81.61
2023-04-30T03:09:00.625Z,81.66
2023-04-30T03:10:04.895Z,81.55
2023-04-30T03:11:09.032Z,81.52
2023-04-30T03:12:13.264Z,81.49
2023-04-30T03:13:17.487Z,81.49
2023-04-30T03:14:21.727Z,81.39
2023-04-30T03:15:26.024Z,81.34
2023-04-30T03:16:30.231Z,81.32
2023-04-30T03:17:34.474Z,81.32
2023-04-30T03:18:38.644Z,81.32
2023-04-30T03:19:42.880Z,81.33
2023-04-30T03:20:47.040Z,81.32
2023-04-30T03:21:51.278Z,81.33
2023-04-30T03:22:55.643Z,81.27
2023-04-30T03:23:59.859Z,81.32
2023-04-30T03:25:04.029Z,81.30
2023-04-30T03:26:08.230Z,81.29
2023-04-30T03:27:12.455Z,81.25
2023-04-30T03:28:16.567Z,81.20
2023-04-30T03:29:20.968Z,81.19
2023-04-30T03:30:25.168Z,81.19
2023-04-30T03:31:29.397Z,81.22
2023-04-30T03:32:33.558Z,81.23
2023-04-30T03:33:37.833Z,81.23
2023-04-30T03:34:41.966Z,81.27
2023-04-30T03:35:46.273Z,81.31
2023-04-30T03:36:50.534Z,81.36
2023-04-30T03:37:54.678Z,81.39
2023-04-30T03:38:58.899Z,81.42
2023-04-30T03:40:03.153Z,81.44
2023-04-30T03:41:07.363Z,81.44
2023-04-30T03:42:11.534Z,81.46
2023-04-30T03:43:15.785Z,81.42
2023-04-30T03:44:20.091Z,81.41
2023-04-30T03:45:24.321Z,81.38
2023-04-30T03:46:28.623Z,81.36
2023-04-30T03:47:35.749Z,81.32
2023-04-30T03:48:39.007Z,81.29
2023-04-30T03:49:43.213Z,81.23
2023-04-30T03:50:47.341Z,81.17
2023-04-30T03:51:51.584Z,81.14
2023-04-30T03:52:55.793Z,81.08
2023-04-30T03:53:59.978Z,81.07
2023-04-30T03:55:04.199Z,81.05
2023-04-30T03:56:08.407Z,81.03
2023-04-30T03:57:12.611Z,81.04
2023-04-30T03:58:16.828Z,81.04
2023-04-30T03:59:21.106Z,81.04
2023-04-30T04:00:25.310Z,80.93
2023-04-30T04:01:29.617Z,81.01
2023-04-30T04:02:47.950Z,81.00
2023-04-30T04:03:51.151Z,81.00
2023-04-30T04:04:55.292Z,81.00
2023-04-30T04:05:59.508Z,81.00
2023-04-30T04:07:03.646Z,81.00
2023-04-30T04:08:13.943Z,81.01
2023-04-30T04:09:16.716Z,80.99
2023-04-30T04:10:20.861Z,80.97
2023-04-30T04:11:25.153Z,80.98
2023-04-30T04:12:29.311Z,80.96
2023-04-30T04:13:33.573Z,80.94
2023-04-30T04:14:37.792Z,80.91
2023-04-30T04:15:42.152Z,80.90
2023-04-30T04:16:46.402Z,80.87
2023-04-30T04:17:50.661Z,80.88
2023-04-30T04:18:54.964Z,80.84
2023-04-30T04:19:59.229Z,80.88
2023-04-30T04:21:03.458Z,80.88
2023-04-30T04:22:07.650Z,80.83
2023-04-30T04:23:11.948Z,80.89
2023-04-30T04:24:16.112Z,80.88
2023-04-30T04:25:20.385Z,80.87
2023-04-30T04:26:24.638Z,80.82
2023-04-30T04:27:28.898Z,80.83
2023-04-30T04:28:33.186Z,80.81
2023-04-30T04:29:37.344Z,80.79
2023-04-30T04:30:41.565Z,80.72
2023-04-30T04:31:45.903Z,80.72
2023-04-30T04:32:50.059Z,80.69
2023-04-30T04:33:54.445Z,80.69
2023-04-30T04:34:58.626Z,80.71
2023-04-30T04:36:02.834Z,80.72
2023-04-30T04:37:07.036Z,80.77
2023-04-30T04:38:11.228Z,80.82
2023-04-30T04:39:15.604Z,80.86
2023-04-30T04:40:19.815Z,80.92
2023-04-30T04:41:24.232Z,80.96
2023-04-30T04:42:28.358Z,80.97
2023-04-30T04:43:32.691Z,80.96
2023-04-30T04:44:36.853Z,80.95
2023-04-30T04:45:41.153Z,80.94
2023-04-30T04:46:45.478Z,80.85
2023-04-30T04:47:49.633Z,80.90
2023-04-30T04:48:53.907Z,80.84
2023-04-30T04:49:58.090Z,80.78
2023-04-30T04:51:02.331Z,80.75
2023-04-30T04:52:06.555Z,80.72
2023-04-30T04:53:10.724Z,80.68
2023-04-30T04:54:15.054Z,80.60
2023-04-30T04:55:19.290Z,80.64
2023-04-30T04:56:23.469Z,80.62
2023-04-30T04:57:27.672Z,80.65
2023-04-30T04:58:31.858Z,80.64
2023-04-30T04:59:36.231Z,80.64
2023-04-30T05:00:40.417Z,80.62
2023-04-30T05:01:44.688Z,80.61
2023-04-30T05:02:48.949Z,80.60
2023-04-30T05:03:53.217Z,80.56
2023-04-30T05:04:57.351Z,80.54
2023-04-30T05:06:01.607Z,80.53
2023-04-30T05:07:05.780Z,80.56
2023-04-30T05:08:10.096Z,80.58
2023-04-30T05:09:14.249Z,80.58
2023-04-30T05:10:18.453Z,80.57
2023-04-30T05:11:22.821Z,80.58
2023-04-30T05:12:26.981Z,80.53
2023-04-30T05:13:31.369Z,80.58
2023-04-30T05:14:35.512Z,80.59
2023-04-30T05:15:39.897Z,80.49
2023-04-30T05:16:44.087Z,80.43
2023-04-30T05:17:48.386Z,80.35
2023-04-30T05:18:52.635Z,80.28
2023-04-30T05:19:57.263Z,80.27
2023-04-30T05:21:01.118Z,80.21
2023-04-30T05:22:05.423Z,80.25
2023-04-30T05:23:09.775Z,80.27
2023-04-30T05:24:13.950Z,80.28
2023-04-30T05:25:18.214Z,80.27
2023-04-30T05:26:22.502Z,80.27
2023-04-30T05:27:26.736Z,80.25
2023-04-30T05:28:30.995Z,80.17
2023-04-30T05:29:35.305Z,80.16
2023-04-30T05:30:39.497Z,80.12
2023-04-30T05:31:43.878Z,80.13
2023-04-30T05:32:47.980Z,80.17
2023-04-30T05:33:52.223Z,80.12
2023-04-30T05:34:56.460Z,80.17
2023-04-30T05:36:00.774Z,80.11
2023-04-30T05:37:04.982Z,80.13
2023-04-30T05:38:09.243Z,80.15
2023-04-30T05:39:13.600Z,80.14
2023-04-30T05:40:17.897Z,80.12
2023-04-30T05:41:22.060Z,80.11
2023-04-30T05:42:26.355Z,80.03
2023-04-30T05:43:30.602Z,79.96
2023-04-30T05:44:34.935Z,79.91
2023-04-30T05:45:39.160Z,79.84
2023-04-30T05:46:43.397Z,79.76
2023-04-30T05:47:47.732Z,79.58
2023-04-30T05:48:52.065Z,79.53
2023-04-30T05:49:56.548Z,79.56
2023-04-30T05:51:00.585Z,79.64
2023-04-30T05:52:04.781Z,79.67
2023-04-30T05:53:09.085Z,79.72
2023-04-30T05:54:13.298Z,79.80
2023-04-30T05:55:17.657Z,79.92
2023-04-30T05:56:21.880Z,80.00
2023-04-30T05:57:26.181Z,79.93
2023-04-30T05:58:30.371Z,79.88
2023-04-30T05:59:34.660Z,79.78
2023-04-30T06:00:39.045Z,79.72
2023-04-30T06:01:43.359Z,79.57
2023-04-30T06:02:47.670Z,79.41
2023-04-30T06:03:51.862Z,79.29
2023-04-30T06:04:56.208Z,79.16
2023-04-30T06:06:00.553Z,78.93
2023-04-30T06:07:04.561Z,78.63
2023-04-30T06:08:08.837Z,78.50
2023-04-30T06:09:12.973Z,78.51
2023-04-30T06:10:17.352Z,78.34
2023-04-30T06:11:21.576Z,77.90
2023-04-30T06:12:25.961Z,77.58
2023-04-30T06:13:30.235Z,77.44
2023-04-30T06:14:34.632Z,77.30
2023-04-30T06:15:38.785Z,77.26
2023-04-30T06:16:43.037Z,77.16
2023-04-30T06:17:47.254Z,77.16
2023-04-30T06:18:53.576Z,77.25
2023-04-30T06:19:56.223Z,77.33
2023-04-30T06:21:00.194Z,77.36
2023-04-30T06:22:04.435Z,76.74
2023-04-30T06:23:08.751Z,76.57
2023-04-30T06:24:12.905Z,76.58
2023-04-30T06:25:23.327Z,76.50
2023-04-30T06:26:26.067Z,76.22
2023-04-30T06:27:36.278Z,76.22
2023-04-30T06:28:39.133Z,75.93
2023-04-30T06:29:43.430Z,75.50
2023-04-30T06:30:47.767Z,74.96
2023-04-30T06:31:52.101Z,74.14
2023-04-30T06:32:56.355Z,73.71
2023-04-30T06:34:00.468Z,73.81
2023-04-30T06:35:04.766Z,74.12
2023-04-30T06:36:09.023Z,74.50
2023-04-30T06:37:13.192Z,74.68
2023-04-30T06:38:17.583Z,74.77
2023-04-30T06:39:21.811Z,74.80
2023-04-30T06:40:26.238Z,74.63
2023-04-30T06:41:30.374Z,74.30
2023-04-30T06:42:34.741Z,74.02
2023-04-30T06:43:39.044Z,73.93
2023-04-30T06:44:43.215Z,73.61
2023-04-30T06:45:47.542Z,73.44
2023-04-30T06:46:51.745Z,73.04
2023-04-30T06:47:56.086Z,72.81
2023-04-30T06:49:00.358Z,72.97
2023-04-30T06:50:04.570Z,73.08
2023-04-30T06:51:10.474Z,73.19
2023-04-30T06:52:13.217Z,73.20
2023-04-30T06:53:20.552Z,73.12
2023-04-30T06:54:26.945Z,72.91
2023-04-30T06:55:30.269Z,73.14
2023-04-30T06:56:34.546Z,73.26
2023-04-30T06:57:38.758Z,73.34
2023-04-30T06:58:43.048Z,72.97
2023-04-30T06:59:47.233Z,72.89
2023-04-30T07:00:51.453Z,72.80
2023-04-30T07:01:55.865Z,73.07
2023-04-30T07:03:00.005Z,73.38
2023-04-30T07:04:04.195Z,73.66
2023-04-30T07:05:08.434Z,73.75
2023-04-30T07:06:12.728Z,73.44
2023-04-30T07:07:20.053Z,73.29
2023-04-30T07:08:23.396Z,73.46
2023-04-30T07:09:27.603Z,73.76
2023-04-30T07:10:31.880Z,73.78
2023-04-30T07:11:36.196Z,73.82
2023-04-30T07:12:40.452Z,73.94
2023-04-30T07:13:44.731Z,73.50
2023-04-30T07:14:49.030Z,73.03
2023-04-30T07:15:53.412Z,72.96
2023-04-30T07:16:57.609Z,72.58
2023-04-30T07:18:01.907Z,71.76
2023-04-30T07:19:06.232Z,71.19
2023-04-30T07:20:10.540Z,71.09
2023-04-30T07:21:14.838Z,71.46
2023-04-30T07:22:19.085Z,71.62
2023-04-30T07:23:23.304Z,71.39
2023-04-30T07:24:27.417Z,71.47
2023-04-30T07:25:35.045Z,71.45
2023-04-30T07:26:38.388Z,71.53
2023-04-30T07:27:42.558Z,71.68
2023-04-30T07:28:46.916Z,71.67
2023-04-30T07:29:51.130Z,71.69
2023-04-30T07:30:58.367Z,71.78
2023-04-30T07:32:01.965Z,72.01
2023-04-30T07:33:05.990Z,71.85
2023-04-30T07:34:13.307Z,71.54
2023-04-30T07:35:16.559Z,71.67
2023-04-30T07:36:20.819Z,71.82
2023-04-30T07:37:25.024Z,72.02
2023-04-30T07:38:29.392Z,72.35
2023-04-30T07:39:33.592Z,72.38
2023-04-30T07:40:37.923Z,72.36
2023-04-30T07:41:42.116Z,72.01
2023-04-30T07:42:46.291Z,72.08
2023-04-30T07:43:50.568Z,72.01
2023-04-30T07:44:54.837Z,71.81
2023-04-30T07:45:59.096Z,71.91
2023-04-30T07:47:03.392Z,71.79
2023-04-30T07:48:10.646Z,71.43
2023-04-30T07:49:13.969Z,70.75
2023-04-30T07:50:18.371Z,69.74
2023-04-30T07:51:22.576Z,69.40
2023-04-30T07:52:26.793Z,68.05
2023-04-30T07:53:31.057Z,67.29
2023-04-30T07:54:38.446Z,67.29
2023-04-30T07:55:41.764Z,67.37
2023-04-30T07:56:46.105Z,67.55
2023-04-30T07:57:50.298Z,67.87
2023-04-30T07:58:54.592Z,68.35
2023-04-30T07:59:59.107Z,68.71
2023-04-30T08:01:03.154Z,68.61
2023-04-30T08:02:07.441Z,68.11
2023-04-30T08:03:11.868Z,67.32
2023-04-30T08:04:16.046Z,66.95
2023-04-30T08:05:20.286Z,66.67
2023-04-30T08:06:24.709Z,66.57
2023-04-30T08:07:28.807Z,66.84
2023-04-30T08:08:33.087Z,66.35
2023-04-30T08:09:37.352Z,66.52
2023-04-30T08:10:41.723Z,67.03
2023-04-30T08:11:46.015Z,67.75
2023-04-30T08:12:50.227Z,67.71
2023-04-30T08:13:54.522Z,66.93
2023-04-30T08:14:58.857Z,66.67
2023-04-30T08:16:03.145Z,66.49
2023-04-30T08:17:07.410Z,66.13
2023-04-30T08:18:11.683Z,66.38
2023-04-30T08:19:15.998Z,66.41
2023-04-30T08:20:20.240Z,66.77
2023-04-30T08:21:24.462Z,66.93
2023-04-30T08:22:28.828Z,67.08
2023-04-30T08:23:39.048Z,67.14
2023-04-30T08:24:41.925Z,66.99
2023-04-30T08:25:46.269Z,66.94
2023-04-30T08:26:50.956Z,66.63
2023-04-30T08:27:54.752Z,66.08
2023-04-30T08:28:59.107Z,65.94
2023-04-30T08:30:03.404Z,65.97
2023-04-30T08:31:07.740Z,66.57
2023-04-30T08:32:11.956Z,66.30
2023-04-30T08:33:16.383Z,65.94
2023-04-30T08:34:20.493Z,65.61
2023-04-30T08:35:24.921Z,65.83
2023-04-30T08:36:29.138Z,65.31
2023-04-30T08:37:33.468Z,65.04
2023-04-30T08:38:37.705Z,64.54
2023-04-30T08:39:41.926Z,64.80
2023-04-30T08:40:51.544Z,64.98
2023-04-30T08:41:50.507Z,65.08
2023-04-30T08:42:54.842Z,65.40
2023-04-30T08:43:59.087Z,65.61
2023-04-30T08:45:03.353Z,65.62
2023-04-30T08:46:07.748Z,65.25
2023-04-30T08:47:11.906Z,64.20
2023-04-30T08:48:16.505Z,63.95
2023-04-30T08:49:20.927Z,63.71
2023-04-30T08:50:24.878Z,63.92
2023-04-30T08:51:29.105Z,64.31
2023-04-30T08:52:33.381Z,64.45
2023-04-30T08:53:37.798Z,64.20
2023-04-30T08:54:41.998Z,63.83
2023-04-30T08:55:46.291Z,63.96
2023-04-30T08:56:50.525Z,64.35
2023-04-30T08:57:54.874Z,64.96
2023-04-30T08:58:59.134Z,65.36
2023-04-30T09:00:03.412Z,65.93
2023-04-30T09:01:07.825Z,65.97
2023-04-30T09:02:12.101Z,65.72
2023-04-30T09:03:16.353Z,65.59
2023-04-30T09:04:20.523Z,65.51
2023-04-30T09:05:24.869Z,65.20
2023-04-30T09:06:29.162Z,65.29
2023-04-30T09:08:50.592Z,65.27
2023-04-30T09:09:55.160Z,64.86
2023-04-30T09:10:59.174Z,64.81
2023-04-30T09:12:03.423Z,64.75
2023-04-30T09:13:07.720Z,64.35
2023-04-30T09:14:11.992Z,64.41
2023-04-30T09:15:16.334Z,64.40
2023-04-30T09:16:20.729Z,64.48
2023-04-30T09:17:24.927Z,64.05
2023-04-30T09:18:29.222Z,63.88
2023-04-30T09:19:33.618Z,63.65
2023-04-30T09:20:51.957Z,62.88
2023-04-30T09:21:55.066Z,61.62
2023-04-30T09:22:59.660Z,60.97
2023-04-30T09:24:03.681Z,61.10
2023-04-30T09:25:08.078Z,61.40
2023-04-30T09:26:12.399Z,61.28
2023-04-30T09:27:16.647Z,61.58
2023-04-30T09:28:20.989Z,62.41
2023-04-30T09:29:25.227Z,62.73
2023-04-30T09:30:29.516Z,62.82
2023-04-30T09:31:33.924Z,62.98
2023-04-30T09:32:38.212Z,62.69
2023-04-30T09:33:42.473Z,62.06
2023-04-30T09:34:46.776Z,61.77
2023-04-30T09:35:51.064Z,60.99
2023-04-30T09:36:55.428Z,60.28
2023-04-30T09:37:59.658Z,60.69
2023-04-30T09:39:04.008Z,61.30
2023-04-30T09:40:08.279Z,61.87
2023-04-30T09:41:12.757Z,62.09
2023-04-30T09:42:16.997Z,62.41
2023-04-30T09:43:21.278Z,62.57
2023-04-30T09:44:25.633Z,62.83
2023-04-30T09:45:31.172Z,62.86
2023-04-30T09:46:34.222Z,62.91
2023-04-30T09:47:38.613Z,62.48
2023-04-30T09:48:42.787Z,62.41
2023-04-30T09:49:47.187Z,62.50
2023-04-30T09:50:51.420Z,62.79
2023-04-30T09:51:55.705Z,62.95
2023-04-30T09:52:59.944Z,63.20
2023-04-30T09:54:04.215Z,63.40
2023-04-30T09:55:08.493Z,63.54
2023-04-30T09:56:12.764Z,63.57
2023-04-30T09:57:17.223Z,63.80
2023-04-30T09:58:21.570Z,63.90
2023-04-30T09:59:25.759Z,63.95
2023-04-30T10:00:30.178Z,63.63
2023-04-30T10:01:34.330Z,63.85
2023-04-30T10:02:38.698Z,63.63
2023-04-30T10:03:43.022Z,64.06
2023-04-30T10:04:47.289Z,64.33
2023-04-30T10:05:51.678Z,64.07
2023-04-30T10:06:55.848Z,63.91
2023-04-30T10:08:00.144Z,63.59
2023-04-30T10:09:07.564Z,63.52
2023-04-30T10:10:11.051Z,63.73
2023-04-30T10:11:15.414Z,63.93
2023-04-30T10:12:19.880Z,64.04
2023-04-30T10:13:24.058Z,64.40
2023-04-30T10:14:28.244Z,64.98
2023-04-30T10:15:32.716Z,65.00
2023-04-30T10:16:42.285Z,64.43
2023-04-30T10:17:45.321Z,63.86
2023-04-30T10:18:49.465Z,63.81
2023-04-30T10:19:54.039Z,63.96
2023-04-30T10:20:58.217Z,63.68
2023-04-30T10:22:02.553Z,63.69
2023-04-30T10:23:19.096Z,63.64
2023-04-30T10:28:39.837Z,64.51
2023-04-30T10:29:43.978Z,64.75
2023-04-30T10:35:10.118Z,63.15
2023-04-30T10:36:19.431Z,62.98
2023-04-30T10:37:22.166Z,63.30
2023-04-30T10:38:26.444Z,63.57
2023-04-30T10:39:30.741Z,63.67
2023-04-30T10:40:34.980Z,64.00
2023-04-30T10:43:05.551Z,63.80
2023-04-30T10:44:10.136Z,64.11
2023-04-30T10:45:14.256Z,64.44
2023-04-30T10:46:32.667Z,64.43
2023-04-30T10:47:35.721Z,63.90
2023-04-30T10:48:42.771Z,63.48
2023-04-30T10:49:46.105Z,63.09
2023-04-30T10:50:56.701Z,62.65
2023-04-30T10:52:03.972Z,62.62
2023-04-30T10:53:07.114Z,62.38
2023-04-30T10:54:11.353Z,61.96
2023-04-30T10:55:15.629Z,62.38
2023-04-30T10:56:19.882Z,62.71
2023-04-30T10:57:25.182Z,63.34
2023-04-30T10:58:29.096Z,63.77
2023-04-30T10:59:33.358Z,64.18
2023-04-30T11:00:37.644Z,64.25
2023-04-30T11:01:42.089Z,63.96
2023-04-30T11:02:46.313Z,63.92
2023-04-30T11:03:50.644Z,64.24
2023-04-30T11:04:54.968Z,64.44
2023-04-30T11:05:59.283Z,64.25
2023-04-30T11:07:03.503Z,63.81
2023-04-30T11:08:07.801Z,62.77
2023-04-30T11:09:12.138Z,62.33
2023-04-30T11:10:16.436Z,62.23
2023-04-30T11:11:20.767Z,62.33
2023-04-30T11:12:28.000Z,62.80
2023-04-30T11:13:45.430Z,63.13
2023-04-30T11:14:48.815Z,63.61
2023-04-30T11:15:53.094Z,63.25
2023-04-30T11:16:57.383Z,63.63
2023-04-30T11:18:01.712Z,63.69
2023-04-30T11:19:05.984Z,63.97
2023-04-30T11:20:10.341Z,63.44
2023-04-30T11:21:14.549Z,63.77
2023-04-30T11:22:18.937Z,63.73
2023-04-30T11:23:32.194Z,63.43
2023-04-30T11:24:28.597Z,63.31
2023-04-30T11:25:31.771Z,63.09
2023-04-30T11:26:36.170Z,62.83
2023-04-30T11:27:40.401Z,63.02
2023-04-30T11:28:44.708Z,62.55
2023-04-30T11:29:48.965Z,62.45
2023-04-30T11:30:53.448Z,62.96
2023-04-30T11:31:57.660Z,63.57
2023-04-30T11:33:02.048Z,63.59
2023-04-30T11:35:33.694Z,62.64
2023-04-30T11:36:37.888Z,62.80
2023-04-30T11:37:42.235Z,63.16
2023-04-30T11:38:46.521Z,62.59
2023-04-30T11:39:50.753Z,61.96
2023-04-30T11:40:55.139Z,60.25
2023-04-30T11:41:59.366Z,59.08
2023-04-30T11:43:03.608Z,59.41
2023-04-30T11:44:07.950Z,59.32
2023-04-30T11:45:12.262Z,59.60
2023-04-30T11:46:16.549Z,59.50
2023-04-30T11:47:20.884Z,58.37
2023-04-30T11:48:25.152Z,58.29
2023-04-30T11:49:29.619Z,57.99
2023-04-30T11:50:33.824Z,59.00
2023-04-30T11:51:38.210Z,60.25
2023-04-30T11:52:42.559Z,60.38
2023-04-30T11:53:46.829Z,60.27
2023-04-30T11:54:51.251Z,59.61
2023-04-30T11:55:55.454Z,58.83
2023-04-30T11:56:59.777Z,58.75
2023-04-30T11:58:04.225Z,58.34
2023-04-30T11:59:08.552Z,58.66
2023-04-30T12:00:12.845Z,58.55
2023-04-30T12:01:17.077Z,59.26
2023-04-30T12:02:21.504Z,59.90
2023-04-30T12:03:25.774Z,59.82
2023-04-30T12:04:30.220Z,59.59
2023-04-30T12:05:34.518Z,58.95
2023-04-30T12:06:38.880Z,57.87
2023-04-30T12:07:43.160Z,57.33
2023-04-30T12:08:47.448Z,57.37
2023-04-30T12:09:51.850Z,56.53
2023-04-30T12:10:56.101Z,56.27
2023-04-30T12:12:00.426Z,56.91
2023-04-30T12:13:04.784Z,56.43
2023-04-30T12:14:09.042Z,57.17
2023-04-30T12:15:13.368Z,57.31
2023-04-30T12:16:17.819Z,56.83
2023-04-30T12:17:22.195Z,56.57
2023-04-30T12:18:26.476Z,57.12
2023-04-30T12:19:30.752Z,56.95
2023-04-30T12:20:35.076Z,57.31
2023-04-30T12:21:42.382Z,56.81
2023-04-30T12:22:59.824Z,56.89
2023-04-30T12:24:03.748Z,57.09
2023-04-30T12:25:07.281Z,57.49
2023-04-30T12:26:11.871Z,57.84
2023-04-30T12:27:16.145Z,58.08
2023-04-30T12:28:20.526Z,58.29
2023-04-30T12:29:24.889Z,57.99
2023-04-30T12:30:29.253Z,58.06
2023-04-30T12:31:33.590Z,56.95
2023-04-30T12:32:37.851Z,56.68
2023-04-30T12:33:42.254Z,56.25
2023-04-30T12:34:46.524Z,56.40
2023-04-30T12:35:50.856Z,56.45
2023-04-30T12:36:55.337Z,56.26
2023-04-30T12:37:59.583Z,55.81
2023-04-30T12:39:04.062Z,55.67
2023-04-30T12:40:08.308Z,55.30
2023-04-30T12:41:12.733Z,55.63
2023-04-30T12:42:17.013Z,56.21
2023-04-30T12:43:21.290Z,56.05
2023-04-30T12:44:25.693Z,56.08
2023-04-30T12:45:29.981Z,56.62
2023-04-30T12:46:34.510Z,56.88
2023-04-30T12:47:38.869Z,57.02
2023-04-30T12:48:43.215Z,56.12
2023-04-30T12:49:47.624Z,55.16
2023-04-30T12:50:52.010Z,55.02
2023-04-30T12:51:56.450Z,54.63
2023-04-30T12:53:00.811Z,55.03
2023-04-30T12:54:05.228Z,55.40
2023-04-30T12:55:09.638Z,55.62
2023-04-30T12:56:13.867Z,56.41
2023-04-30T12:57:18.258Z,56.15
2023-04-30T12:58:22.708Z,55.77
2023-04-30T12:59:27.101Z,55.94
2023-04-30T13:00:31.383Z,55.39
2023-04-30T13:01:35.775Z,55.04
2023-04-30T13:02:40.224Z,54.89
2023-04-30T13:03:44.510Z,55.17
2023-04-30T13:04:48.903Z,54.67
2023-04-30T13:05:53.180Z,55.01
2023-04-30T13:06:57.663Z,55.46
2023-04-30T13:08:04.955Z,56.09
2023-04-30T13:09:08.435Z,56.88
2023-04-30T13:10:12.704Z,57.29
2023-04-30T13:11:17.086Z,57.38
2023-04-30T13:12:21.579Z,57.49
2023-04-30T13:13:25.845Z,57.79
2023-04-30T13:14:30.136Z,57.45
2023-04-30T13:15:34.562Z,57.03
2023-04-30T13:16:40.335Z,56.87
2023-04-30T13:17:43.314Z,57.46
2023-04-30T13:18:47.553Z,57.54
2023-04-30T13:19:51.870Z,57.29
2023-04-30T13:20:56.105Z,57.02
2023-04-30T13:22:06.537Z,57.03
2023-04-30T13:23:09.575Z,57.45
2023-04-30T13:24:13.960Z,57.47
2023-04-30T13:25:18.254Z,57.44
2023-04-30T13:26:22.577Z,57.28
2023-04-30T13:27:26.890Z,57.50
2023-04-30T13:28:37.297Z,58.07
2023-04-30T13:29:40.221Z,58.33
2023-04-30T13:30:44.674Z,58.94
2023-04-30T13:31:49.204Z,59.15
2023-04-30T13:32:53.406Z,59.14
2023-04-30T13:33:57.709Z,59.75
2023-04-30T13:35:02.956Z,59.81
2023-04-30T13:36:06.883Z,59.51
2023-04-30T13:37:11.206Z,59.80
2023-04-30T13:38:15.556Z,60.02
2023-04-30T13:39:19.817Z,60.23
2023-04-30T13:40:24.123Z,60.26
2023-04-30T13:41:28.403Z,60.53
2023-04-30T13:42:32.652Z,60.19
2023-04-30T13:43:37.902Z,60.21
2023-04-30T13:44:41.344Z,60.58
2023-04-30T13:45:45.603Z,60.81
2023-04-30T13:46:49.933Z,60.91
2023-04-30T13:47:54.242Z,61.13
2023-04-30T13:49:01.630Z,61.21
2023-04-30T13:50:05.134Z,61.25
2023-04-30T13:51:09.359Z,61.30
2023-04-30T13:52:13.705Z,61.33
2023-04-30T13:53:18.028Z,61.33
2023-04-30T13:54:22.311Z,61.48
2023-04-30T13:55:26.584Z,61.32
2023-04-30T13:56:30.997Z,61.26
2023-04-30T13:57:35.322Z,61.31
2023-04-30T13:58:39.601Z,61.20
2023-04-30T13:59:43.919Z,61.37
2023-04-30T14:00:51.596Z,61.78
2023-04-30T14:01:54.919Z,61.81
2023-04-30T14:02:59.253Z,61.65
2023-04-30T14:04:03.443Z,61.40